Martin Lake, Minnesota
Current Conditions -  °F | °C
As of 10:16 AM on Tuesday 21 Oct 2014 (Local Time) from KCBG Reporting Station
Clear Clear  
Wind Chill: 44°   Ceiling: Unl
Heat Index: 48°   Visibility: 10mi
Dew Point: 36°   Wind: 10mph
Humidity: 62%   Direction: 130°SE
Pressure: 30.19"   Gusts: NA
Location:  45.406°N, 93.0079°W
Report Text: KCBG 211516Z AUTO 13009KT 10SM CLR 09/02 A3019 RMK AO2
Loading
Personal Weather Stations






























Interactive Weather Map
Tropical Storm Tracking
New forecast layout! Learn more

10-Day Weather Forecast

Advertisements
Track Severe Weather on mobile